Weather at Pistohiekan Glider Field

Public forecast

Using degrees Celsius for public forecast. Weather courtesy of forecast.io.

Closest aviation weather report (METAR) to Pistohiekan Glider Field

Closest report is Mikkeli Airport, 24.2 nm (44.9 km) WNW.

2024/06/20 19:20 (retrieved 32 minutes ago)

EFMI 201920Z AUTO 27007KT CAVOK 13/06 Q1006

Closest aviation forecast (TAF) to Pistohiekan Glider Field

Closest forecast is Jyväskylä Airport, 82.6 nm (153.1 km) NW.

2024/06/20 18:42 (retrieved 1 hour ago)

TAF EFJY 201726Z 2018/2118 29007KT CAVOK PROB40 TEMPO 2109/2115 30015G25KT